createdAt,value
2018-12-15T00:24:57.105Z,4.00
2018-12-15T00:52:53.192Z,4.30
2018-12-15T01:24:41.853Z,4.40
2018-12-15T01:28:19.134Z,4.40
2018-12-15T01:51:02.851Z,3.90
2018-12-15T01:57:49.124Z,3.90
2018-12-15T02:04:25.011Z,4.10
2018-12-15T02:07:38.930Z,4.20
2018-12-15T02:22:28.394Z,4.50
2018-12-15T02:46:42.710Z,4.90
2018-12-15T02:49:49.555Z,4.90
2018-12-15T02:53:02.941Z,4.70
2018-12-15T03:03:11.912Z,4.80
2018-12-15T03:23:46.731Z,5.10
2018-12-15T03:42:25.610Z,4.80
2018-12-15T03:45:32.037Z,4.90
2018-12-15T03:49:14.776Z,5.00
2018-12-15T04:07:11.711Z,4.90
2018-12-15T04:14:21.585Z,5.00
2018-12-15T04:17:31.265Z,5.10
2018-12-15T04:20:39.686Z,5.20
2018-12-15T04:24:05.496Z,5.20
2018-12-15T04:27:15.076Z,5.30
2018-12-15T04:30:32.467Z,5.30
2018-12-15T04:34:09.626Z,5.30
2018-12-15T04:37:31.953Z,5.40
2018-12-15T04:54:43.958Z,5.40
2018-12-15T04:57:48.790Z,5.40
2018-12-15T05:00:58.971Z,5.40
2018-12-15T05:19:51.389Z,5.10
2018-12-15T05:23:21.003Z,5.10
2018-12-15T05:48:00.230Z,5.50
2018-12-15T05:51:20.258Z,5.50
2018-12-15T05:54:45.035Z,5.40
2018-12-15T06:01:14.898Z,5.40
2018-12-15T06:04:29.609Z,5.40
2018-12-15T06:09:16.021Z,5.40
2018-12-15T06:12:26.857Z,5.40
2018-12-15T06:21:28.132Z,5.30
2018-12-15T06:38:27.912Z,5.20
2018-12-15T06:56:49.564Z,5.70
2018-12-15T07:02:47.103Z,5.70
2018-12-15T07:05:22.953Z,5.70
2018-12-15T07:07:59.946Z,5.70
2018-12-15T07:10:34.219Z,5.60
2018-12-15T07:13:08.547Z,5.60
2018-12-15T07:15:42.857Z,5.60
2018-12-15T07:21:30.166Z,5.50
2018-12-15T07:24:09.370Z,5.50
2018-12-15T07:26:45.661Z,5.50
2018-12-15T07:32:28.360Z,5.50
2018-12-15T07:35:16.044Z,5.50
2018-12-15T07:38:17.070Z,5.50
2018-12-15T07:40:55.867Z,5.50
2018-12-15T07:43:55.198Z,5.50
2018-12-15T07:46:29.503Z,5.50
2018-12-15T07:49:29.762Z,5.50
2018-12-15T07:53:15.452Z,5.50
2018-12-15T07:55:49.836Z,5.60
2018-12-15T09:06:21.086Z,5.80
2018-12-15T09:08:57.170Z,6.10
2018-12-15T09:14:44.015Z,6.00
2018-12-15T09:17:18.324Z,6.10
2018-12-15T09:19:52.665Z,6.10
2018-12-15T09:22:26.980Z,6.10
2018-12-15T09:25:05.758Z,6.10
2018-12-15T09:27:42.448Z,6.10
2018-12-15T09:30:20.534Z,6.20
2018-12-15T09:33:02.855Z,6.20
2018-12-15T09:35:40.680Z,6.20
2018-12-15T09:39:10.968Z,6.20
2018-12-15T09:42:00.354Z,6.20
2018-12-15T10:06:28.882Z,6.20
2018-12-15T10:32:07.272Z,6.10
2018-12-15T10:34:41.764Z,6.50
2018-12-15T10:37:16.307Z,6.80
2018-12-15T10:39:50.943Z,6.60
2018-12-15T10:42:25.448Z,6.60
2018-12-15T10:44:59.887Z,6.60
2018-12-15T10:47:34.530Z,6.70
2018-12-15T10:50:10.345Z,6.70
2018-12-15T10:52:44.870Z,6.70
2018-12-15T10:55:19.357Z,6.70
2018-12-15T10:57:53.921Z,6.80
2018-12-15T11:00:34.923Z,6.80
2018-12-15T11:03:09.224Z,6.80
2018-12-15T11:05:43.507Z,6.90
2018-12-15T11:08:18.650Z,6.90
2018-12-15T11:10:56.309Z,7.00
2018-12-15T11:13:34.668Z,7.00
2018-12-15T11:16:14.526Z,7.10
2018-12-15T11:18:52.775Z,7.10
2018-12-15T11:21:37.227Z,7.20
2018-12-15T11:24:16.867Z,7.30
2018-12-15T11:26:56.357Z,7.40
2018-12-15T11:29:36.480Z,7.50
2018-12-15T11:32:17.848Z,7.60
2018-12-15T11:34:58.111Z,7.50
2018-12-15T11:37:37.941Z,7.50
2018-12-15T11:40:23.179Z,7.40
2018-12-15T11:43:01.150Z,7.40
2018-12-15T11:45:40.470Z,7.40
2018-12-15T11:48:20.204Z,7.30
2018-12-15T11:50:58.269Z,7.30
2018-12-15T11:53:37.471Z,7.30
2018-12-15T11:56:18.967Z,7.30
2018-12-15T11:58:58.301Z,7.20
2018-12-15T12:01:36.292Z,7.30
2018-12-15T12:04:13.853Z,7.30
2018-12-15T12:06:51.610Z,7.30
2018-12-15T12:09:27.938Z,7.20
2018-12-15T12:12:05.241Z,7.30
2018-12-15T12:14:43.061Z,7.30
2018-12-15T12:17:20.968Z,7.30
2018-12-15T12:19:58.880Z,7.30
2018-12-15T12:22:37.575Z,7.30
2018-12-15T12:25:17.377Z,7.30
2018-12-15T12:27:54.356Z,7.30
2018-12-15T12:30:30.882Z,7.30
2018-12-15T12:33:07.946Z,7.30
2018-12-15T12:35:45.082Z,7.30
2018-12-15T12:38:22.955Z,7.30
2018-12-15T12:40:59.802Z,7.30
2018-12-15T12:43:36.288Z,7.30
2018-12-15T12:46:12.613Z,7.20
2018-12-15T12:48:49.723Z,7.20
2018-12-15T12:51:25.201Z,7.20
2018-12-15T12:54:02.478Z,7.10
2018-12-15T12:56:41.276Z,7.10
2018-12-15T12:59:17.457Z,7.00
2018-12-15T13:01:53.753Z,7.00
2018-12-15T13:04:29.475Z,7.00
2018-12-15T13:07:05.536Z,7.00
2018-12-15T13:09:42.334Z,7.00
2018-12-15T13:12:17.716Z,7.00
2018-12-15T13:14:53.408Z,7.00
2018-12-15T13:17:29.689Z,7.00
2018-12-15T13:20:05.451Z,6.90
2018-12-15T13:22:40.888Z,6.90
2018-12-15T13:25:16.075Z,6.90
2018-12-15T13:27:50.517Z,6.90
2018-12-15T13:30:26.061Z,6.90
2018-12-15T13:33:21.621Z,6.80
2018-12-15T13:35:56.097Z,6.80
2018-12-15T13:38:30.440Z,6.80
2018-12-15T13:41:05.370Z,6.80
2018-12-15T13:43:39.707Z,6.80
2018-12-15T13:46:16.401Z,6.80
2018-12-15T13:49:41.042Z,6.70
2018-12-15T13:52:25.375Z,6.80
2018-12-15T13:55:19.687Z,6.80
2018-12-15T13:57:54.013Z,6.80
2018-12-15T14:00:28.783Z,6.80
2018-12-15T14:03:07.031Z,6.90
2018-12-15T14:05:47.272Z,6.90
2018-12-15T14:08:21.699Z,6.80
2018-12-15T14:10:56.109Z,6.80
2018-12-15T14:13:31.446Z,6.80
2018-12-15T14:16:12.837Z,6.70
2018-12-15T14:18:55.547Z,6.70
2018-12-15T14:21:29.981Z,6.70
2018-12-15T14:24:04.353Z,6.60
2018-12-15T14:26:38.804Z,6.60
2018-12-15T14:29:13.342Z,6.50
2018-12-15T14:31:47.768Z,6.50
2018-12-15T14:34:22.425Z,6.50
2018-12-15T14:36:57.149Z,6.40
2018-12-15T14:39:31.538Z,6.40
2018-12-15T14:42:08.674Z,6.40
2018-12-15T14:44:43.030Z,6.40
2018-12-15T14:47:19.664Z,6.40
2018-12-15T14:49:54.172Z,6.40
2018-12-15T14:52:28.703Z,6.30
2018-12-15T14:55:03.164Z,6.30
2018-12-15T14:57:37.536Z,6.30
2018-12-15T15:00:12.063Z,6.30
2018-12-15T15:02:46.404Z,6.30
2018-12-15T15:05:20.840Z,6.30
2018-12-15T15:07:55.318Z,6.20
2018-12-15T15:10:29.645Z,6.30
2018-12-15T15:13:04.508Z,6.20
2018-12-15T15:15:42.262Z,6.20
2018-12-15T15:18:17.778Z,6.20
2018-12-15T15:20:52.128Z,6.20
2018-12-15T15:23:26.567Z,6.20
2018-12-15T15:26:00.887Z,6.20
2018-12-15T15:28:35.341Z,6.20
2018-12-15T15:31:09.647Z,6.20
2018-12-15T15:33:43.967Z,6.20
2018-12-15T15:36:18.304Z,6.20
2018-12-15T15:38:52.633Z,6.30
2018-12-15T15:41:27.143Z,6.30
2018-12-15T15:44:01.538Z,6.30
2018-12-15T15:46:35.997Z,6.30
2018-12-15T15:49:39.274Z,6.30
2018-12-15T15:52:18.647Z,6.30
2018-12-15T15:54:59.563Z,6.30
2018-12-15T15:57:40.069Z,6.30
2018-12-15T16:00:20.850Z,6.30
2018-12-15T16:03:01.884Z,6.30
2018-12-15T16:05:43.087Z,6.30
2018-12-15T16:08:24.167Z,6.30
2018-12-15T16:11:04.588Z,6.40
2018-12-15T16:13:46.653Z,6.40
2018-12-15T16:16:36.713Z,6.40
2018-12-15T16:19:16.256Z,6.40
2018-12-15T16:21:58.224Z,6.40
2018-12-15T16:24:39.049Z,6.40
2018-12-15T16:27:19.344Z,6.50
2018-12-15T16:29:59.668Z,6.50
2018-12-15T16:32:41.608Z,6.50
2018-12-15T16:35:25.106Z,6.50
2018-12-15T16:38:07.590Z,6.50
2018-12-15T16:40:50.731Z,6.50
2018-12-15T16:43:32.869Z,6.50
2018-12-15T16:46:15.823Z,6.60
2018-12-15T16:48:57.274Z,6.60
2018-12-15T16:51:40.348Z,6.60
2018-12-15T16:54:24.055Z,6.60
2018-12-15T16:57:06.005Z,6.60
2018-12-15T16:59:48.858Z,6.60
2018-12-15T17:02:31.985Z,6.60
2018-12-15T17:05:17.071Z,6.60
2018-12-15T17:08:00.452Z,6.60
2018-12-15T17:11:05.205Z,6.60
2018-12-15T17:14:35.722Z,6.60
2018-12-15T17:23:22.416Z,6.60
2018-12-15T17:26:15.455Z,6.60
2018-12-15T17:53:10.481Z,6.90
2018-12-15T18:00:29.629Z,6.80
2018-12-15T18:16:38.999Z,6.80
2018-12-15T18:19:18.421Z,6.80
2018-12-15T18:21:56.652Z,6.80
2018-12-15T18:24:47.842Z,6.70
2018-12-15T18:27:46.380Z,6.70
2018-12-15T18:30:42.548Z,6.60
2018-12-15T18:33:42.263Z,6.60
2018-12-15T18:39:48.290Z,6.60
2018-12-15T18:45:50.867Z,6.60
2018-12-15T18:48:55.299Z,6.50
2018-12-15T18:51:38.199Z,6.50
2018-12-15T18:54:28.387Z,6.50
2018-12-15T18:57:52.169Z,6.50
2018-12-15T19:00:45.142Z,6.50
2018-12-15T19:03:42.516Z,6.50
2018-12-15T19:06:42.989Z,6.60
2018-12-15T19:09:41.030Z,6.50
2018-12-15T19:12:36.387Z,6.50
2018-12-15T19:15:12.880Z,6.50
2018-12-15T19:17:47.215Z,6.50
2018-12-15T19:20:50.971Z,6.50
2018-12-15T19:25:45.471Z,6.50
2018-12-15T19:28:40.088Z,6.50
2018-12-15T19:31:19.513Z,6.50
2018-12-15T19:37:12.851Z,6.80
2018-12-15T19:49:05.013Z,7.30
2018-12-15T20:20:03.648Z,6.70
2018-12-15T20:25:48.878Z,6.50
2018-12-15T20:28:23.297Z,6.50
2018-12-15T20:30:57.742Z,6.50
2018-12-15T20:33:32.197Z,6.50
2018-12-15T20:36:13.007Z,6.40
2018-12-15T20:38:54.621Z,6.40
2018-12-15T20:41:33.073Z,6.30
2018-12-15T20:44:15.120Z,6.30
2018-12-15T20:46:55.977Z,6.30
2018-12-15T20:49:39.109Z,6.30
2018-12-15T20:52:22.781Z,6.30
2018-12-15T20:55:05.153Z,6.30
2018-12-15T20:57:50.629Z,6.20
2018-12-15T21:00:29.115Z,6.20
2018-12-15T21:03:07.940Z,6.20
2018-12-15T21:05:49.535Z,6.20
2018-12-15T21:08:34.620Z,6.10
2018-12-15T21:11:17.330Z,6.10
2018-12-15T21:13:54.839Z,6.10
2018-12-15T21:16:37.240Z,6.10
2018-12-15T21:19:17.688Z,6.10
2018-12-15T21:21:55.430Z,6.00
2018-12-15T21:24:34.857Z,6.00
2018-12-15T21:27:14.181Z,6.00
2018-12-15T21:29:53.376Z,5.90
2018-12-15T21:32:31.586Z,5.90
2018-12-15T21:35:10.060Z,5.90
2018-12-15T21:37:50.316Z,5.80
2018-12-15T21:40:28.625Z,5.80
2018-12-15T21:43:12.508Z,5.80
2018-12-15T21:45:52.398Z,5.70
2018-12-15T21:48:33.859Z,5.70
2018-12-15T21:51:12.753Z,5.60
2018-12-15T21:53:51.023Z,5.60
2018-12-15T21:56:29.280Z,5.50
2018-12-15T21:59:06.235Z,5.50
2018-12-15T22:01:43.740Z,5.40
2018-12-15T22:04:20.661Z,5.40
2018-12-15T22:06:57.961Z,5.40
2018-12-15T22:09:35.838Z,5.30
2018-12-15T22:12:12.475Z,5.30
2018-12-15T22:14:50.679Z,5.20
2018-12-15T22:17:27.100Z,5.20
2018-12-15T22:20:03.575Z,5.20
2018-12-15T22:22:41.600Z,5.10
2018-12-15T22:25:18.146Z,5.10
2018-12-15T22:27:54.830Z,5.10
2018-12-15T22:30:31.349Z,5.10
2018-12-15T22:33:07.353Z,5.00
2018-12-15T22:35:43.508Z,5.00
2018-12-15T22:38:21.144Z,5.10
2018-12-15T22:40:57.292Z,5.00
2018-12-15T22:43:33.938Z,5.00
2018-12-15T22:46:10.745Z,5.00
2018-12-15T22:48:47.440Z,5.00
2018-12-15T22:51:23.355Z,5.00
2018-12-15T22:53:59.057Z,4.90
2018-12-15T22:56:35.864Z,4.90
2018-12-15T22:59:12.399Z,4.90
2018-12-15T23:01:48.554Z,4.90
2018-12-15T23:04:25.668Z,4.90
2018-12-15T23:07:01.890Z,4.80
2018-12-15T23:09:38.990Z,4.80
2018-12-15T23:12:15.276Z,4.80
2018-12-15T23:14:51.523Z,4.70
2018-12-15T23:17:28.583Z,4.70
2018-12-15T23:20:06.764Z,4.70
2018-12-15T23:22:42.794Z,4.60
2018-12-15T23:25:19.681Z,4.60
2018-12-15T23:27:56.178Z,4.60
2018-12-15T23:30:33.295Z,4.50
2018-12-15T23:33:09.846Z,4.50
2018-12-15T23:35:46.343Z,4.50
2018-12-15T23:38:23.127Z,4.50
2018-12-15T23:40:59.507Z,4.40
2018-12-15T23:43:36.061Z,4.40
2018-12-15T23:46:12.709Z,4.40
2018-12-15T23:48:49.021Z,4.30
2018-12-15T23:51:25.921Z,4.30
2018-12-15T23:54:02.348Z,4.20
2018-12-15T23:56:38.826Z,4.20
2018-12-15T23:59:15.684Z,4.10
